Aeroporto :
LOGIN :

Iscrizione | Disclaimer

   EN    FR    IT 

 










Sommario :    VFR   VFR Marginale   IFR   IFR Intensivo   IFR Molto Intensivo
Visibilità : 
Base nubi : 
>= 8 km
>= 3000ft
5 / 8 km
1000 / 3000 ft
1500m / 5 km
500 / 1000 ft
800 / 1500m
200 / 500 ft
< 800m
< 200 ft
Simboli :   Temporali  Nebbia  Neve Forte  Precipitazioni Forti  Vento > 20 kt
SIGMETs :   Varie  Temporali  Ghiacco  Turbolenza  Onda orograficha  Ceneri Vulcaniche






- Altitudine del aeroporto : 256 ft
- Codice IATA : KUN


EYKA - Kaunas

ULTIMO METAR :
  • 291750Z 15003KT 9999 SCT032 OVC042 02/00 Q0996 R08/290095

METARs OBSOLETI :
  • 291720Z 15003KT 9000 SCT031 OVC046 02/00 Q0996 R08/290095
  • 291650Z 15003KT 130V220 9000 OVC047 02/00 Q0996 R08/290095
  • 291620Z 14003KT 9000 OVC041 02/01 Q0996 R08/290095
  • 291550Z VRB02KT 9000 OVC037 03/01 Q0996 R08/290095
  • 291520Z VRB01KT 9000 SCT033 OVC040 02/01 Q0995 R08/290095

TAF TAF EYKA
Valido dal 29 a 18 ore il 30 a 18 ore UTC


291720Z 2918/3018 VRB03KT 6000 OVC010
TEMPO 2918/2920 3000 DZ BR BKN005
TEMPO 2920/3003 1500 SHSNRA BR BKN003 BKN015CB
TEMPO 3008/3015 1500 SHSNRA BR BKN015CB



MetMap, La meteo Aeronautica in un colpo d'occhio ! - Copyright ORBIFLY Dicembre 2007 - Disclaimer

ORBIFLY MET'MAP TEAM :

Programmazione e sviluppo : Alexandra Zaïnal
Concezione : Baudouin d'Aumeries
Aiuto per la programmazione : Marc-Olivier Méhu
Supporto tecnico e logistico : Manuel Goepfert
Aiuto per la traduzione : Arnaldo La Scala

Contatto : metmap@orbifly.com




FONTI E CREDITI :

   NOAA